Terminal Aerodrome Forecast
Issued by NWS

Home | Current Version | Previous Version | Text Only | Print | Product List | Glossary On
Versions: 1 2 3 4 5 6 7 8 9 10 11 12 13 14 15 16 17 18 19 20 21 22 23 24 25 26 27 28 29 30 31 32 33 34 35 36 37 38 39 40 41 42 43 44 45 46 47 48 49
000
FTAK31 PAFA 020148 AAB
TAFASC
TAF AMD
PASC 020148Z 0202/0224 28012KT 6SM -RA BR FEW005 BKN010 OVC015
      TEMPO 0202/0204 28015G22KT 2SM -RA BR SCT005 OVC010
     FM020400 27013KT 4SM -RA BR OVC007
     FM022100 28013KT 6SM -RA BR OVC015=

USA.gov is the U.S. government's official web portal to all federal, state and local government web resources and services.